Downstream station:
SHEF ID: CHTM7 Spring River at Carthage, MO
STATION TYPE:
PRECIP STAGE RIV-FLOW
in ft cfs
Ccp-Rev Ccp-Rev Ccp-Rev
(US/Central)
05/22 00:00 0.00 9.03 4782
05/22 01:00 0.00 8.94 4687
05/22 02:00 0.00 8.84 4582
05/22 03:00 0.00 8.67 4406
05/22 04:00 0.00 8.54 4272
05/22 05:00 0.00 8.36 4090
05/22 06:00 0.00 8.17 3901
05/22 07:00 0.00 8.05 3783
05/22 08:00 0.00 7.90 3638
05/22 09:00 0.00 7.71 3457
05/22 10:00 0.00 7.51 3269
05/22 11:00 0.00 7.30 3077
05/22 12:00 0.00 7.06 2862
05/22 13:00 0.00 6.84 2670
05/22 14:00 0.00 6.61 2475
05/22 15:00 0.00 6.46 2350
05/22 16:00 0.00 6.30 2220
05/22 17:00 0.00 6.19 2132
05/22 18:00 0.00 6.07 2035
05/22 19:00 0.00 6.00 1980
05/22 20:00 0.00 5.91 1907
05/22 21:00 0.00 5.82 1836
05/22 22:00 0.00 5.82 1836
05/22 23:00 ---- ---- ----